OPLA/LHE METAR and TAF weather

Enter ICAO airport designator
Station Type Date Time Source
OPLA METAR 2020/12/06 01:55 UTC NOAA

OPLA 060155Z 00000KT 1500 R36/0750 R18/0900 BR SCT100 11/09 Q1015 BECMG 0600 FG RMK RMID/0550 RMK QFE987 RMK A29.97


Station Type Date Time Source
OPLA Decoded METAR 2020/12/06 01:55 UTC NOAA

Lahore Airport, Pakistan (OPLA) 31-31N 074-24E 217M
Dec 05, 2020 - 08:55 PM EST / 2020.12.06 0155 UTC
Wind: Calm:0
Visibility: less than 1 mile:0
Sky conditions: partly cloudy
Weather: mist
Temperature: 51 F (11 C)
Dew Point: 48 F (9 C)
Relative Humidity: 87%
Pressure (altimeter): 29.97 in. Hg (1015 hPa)
ob: OPLA 060155Z 00000KT 1500 R36/0750 R18/0900 BR SCT100 11/09 Q1015 BECMG 0600 FG RMK RMID/0550 RMK QFE987 RMK A29.97
cycle: 2

Station Type Date Time Source
OPLA TAF 2020/12/05 18:04 UTC NOAA

TAF OPLA 051545Z 0518/0624 03003KT 2000 BR SCT100 TX22/0610Z TN10/0601Z
TEMPO 0600/0604 0600 FG
BECMG 0604/0606 1500 BR
FM060600 36004KT 3000 FU SCT100
BECMG 0620/0624 VRB02KT 1500 BR

Example: see airport list